createdAt,value
2022-12-26T00:00:11.982Z,7.59
2022-12-26T00:05:36.348Z,7.63
2022-12-26T00:08:04.095Z,7.57
2022-12-26T00:10:31.139Z,7.60
2022-12-26T00:13:39.913Z,7.60
2022-12-26T00:16:17.808Z,7.63
2022-12-26T00:24:53.079Z,7.63
2022-12-26T00:27:21.067Z,7.64
2022-12-26T00:29:53.071Z,7.57
2022-12-26T00:32:21.087Z,7.62
2022-12-26T00:34:56.098Z,7.60
2022-12-26T00:37:23.091Z,7.59
2022-12-26T00:39:51.045Z,7.60
2022-12-26T00:42:19.039Z,7.62
2022-12-26T00:44:47.024Z,7.60
2022-12-26T00:47:15.235Z,7.59
2022-12-26T00:50:35.138Z,7.59
2022-12-26T00:56:02.270Z,7.56
2022-12-26T00:58:29.416Z,7.53
2022-12-26T01:01:06.338Z,7.53
2022-12-26T01:03:33.076Z,7.55
2022-12-26T01:06:02.315Z,7.52
2022-12-26T01:08:28.996Z,7.55
2022-12-26T01:11:09.887Z,7.59
2022-12-26T01:13:42.330Z,7.52
2022-12-26T01:16:09.165Z,7.56
2022-12-26T01:21:29.143Z,7.56
2022-12-26T01:23:57.280Z,7.62
2022-12-26T01:26:25.050Z,7.57
2022-12-26T01:28:53.417Z,7.62
2022-12-26T01:31:22.243Z,7.53
2022-12-26T01:33:49.194Z,7.43
2022-12-26T01:36:17.689Z,7.53
2022-12-26T01:38:45.555Z,7.60
2022-12-26T01:41:20.483Z,7.64
2022-12-26T01:44:06.361Z,7.73
2022-12-26T01:46:45.852Z,7.66
2022-12-26T01:49:31.848Z,7.63
2022-12-26T01:52:34.185Z,7.67
2022-12-26T01:55:03.013Z,7.67
2022-12-26T01:57:36.553Z,7.67
2022-12-26T02:00:06.486Z,7.74
2022-12-26T02:03:01.657Z,7.71
2022-12-26T02:05:33.901Z,7.74
2022-12-26T02:08:15.886Z,7.63
2022-12-26T02:10:55.552Z,7.71
2022-12-26T02:13:29.485Z,7.69
2022-12-26T02:15:57.254Z,7.71
2022-12-26T02:18:50.078Z,7.71
2022-12-26T02:21:36.369Z,7.70
2022-12-26T02:24:26.932Z,7.74
2022-12-26T02:27:30.603Z,7.70
2022-12-26T02:30:07.063Z,7.67
2022-12-26T02:33:15.799Z,7.64
2022-12-26T02:35:49.035Z,7.67
2022-12-26T02:38:33.625Z,7.73
2022-12-26T02:41:41.794Z,7.60
2022-12-26T02:44:39.433Z,7.64
2022-12-26T02:47:26.542Z,7.66
2022-12-26T02:50:27.854Z,7.67
2022-12-26T02:53:33.697Z,7.73
2022-12-26T03:00:16.136Z,7.74
2022-12-26T03:03:36.087Z,7.77
2022-12-26T03:06:32.016Z,7.63
2022-12-26T03:09:26.149Z,7.76
2022-12-26T03:12:15.824Z,7.80
2022-12-26T03:14:58.373Z,7.83
2022-12-26T03:17:36.631Z,7.83
2022-12-26T03:20:13.744Z,7.84
2022-12-26T03:23:11.667Z,7.90
2022-12-26T03:26:05.621Z,7.89
2022-12-26T03:28:58.466Z,7.84
2022-12-26T03:31:27.121Z,7.80
2022-12-26T03:34:23.477Z,7.83
2022-12-26T03:37:19.004Z,7.87
2022-12-26T03:47:49.487Z,7.84
2022-12-26T03:54:39.198Z,7.89
2022-12-26T03:57:31.865Z,7.87
2022-12-26T04:00:47.640Z,7.95
2022-12-26T04:03:37.418Z,7.91
2022-12-26T04:06:25.842Z,7.86
2022-12-26T04:09:21.107Z,7.79
2022-12-26T04:12:07.467Z,7.86
2022-12-26T04:18:31.970Z,7.95
2022-12-26T04:21:05.444Z,7.94
2022-12-26T04:24:03.505Z,7.90
2022-12-26T04:27:10.160Z,7.91
2022-12-26T04:30:02.406Z,7.93
2022-12-26T04:33:04.830Z,7.94
2022-12-26T04:39:35.277Z,8.01
2022-12-26T04:42:22.758Z,7.98
2022-12-26T04:44:51.275Z,7.95
2022-12-26T04:47:24.125Z,8.00
2022-12-26T04:50:12.308Z,7.90
2022-12-26T04:52:58.626Z,8.01
2022-12-26T04:55:32.832Z,7.91
2022-12-26T04:58:01.136Z,7.95
2022-12-26T05:00:29.161Z,8.04
2022-12-26T05:06:31.601Z,8.08
2022-12-26T05:09:17.656Z,8.08
2022-12-26T05:11:47.223Z,8.04
2022-12-26T05:14:15.030Z,8.08
2022-12-26T05:20:15.923Z,8.02
2022-12-26T05:23:06.718Z,7.97
2022-12-26T05:28:57.923Z,7.97
2022-12-26T05:31:29.745Z,8.00
2022-12-26T05:34:07.702Z,7.97
2022-12-26T05:36:47.324Z,8.02
2022-12-26T05:39:20.098Z,8.02
2022-12-26T05:41:47.017Z,8.04
2022-12-26T05:44:19.079Z,7.94
2022-12-26T05:46:47.243Z,7.91
2022-12-26T05:49:19.063Z,8.01
2022-12-26T05:51:47.056Z,8.10
2022-12-26T05:54:15.122Z,8.00
2022-12-26T05:56:49.092Z,8.07
2022-12-26T05:59:22.140Z,8.08
2022-12-26T06:01:49.239Z,8.10
2022-12-26T06:04:17.064Z,8.05
2022-12-26T06:06:45.033Z,8.05
2022-12-26T06:09:13.039Z,8.07
2022-12-26T06:11:48.796Z,8.14
2022-12-26T06:14:17.252Z,8.04
2022-12-26T06:16:49.351Z,7.98
2022-12-26T06:19:22.439Z,7.98
2022-12-26T06:21:49.069Z,8.10
2022-12-26T06:24:23.412Z,8.15
2022-12-26T06:26:51.151Z,8.10
2022-12-26T06:29:19.152Z,8.08
2022-12-26T06:32:11.049Z,8.11
2022-12-26T06:34:39.169Z,8.19
2022-12-26T06:37:07.029Z,8.14
2022-12-26T06:39:40.077Z,8.24
2022-12-26T06:42:07.087Z,8.14
2022-12-26T06:44:35.128Z,8.18
2022-12-26T06:47:27.189Z,8.08
2022-12-26T06:49:55.059Z,8.17
2022-12-26T06:52:23.050Z,8.08
2022-12-26T06:54:51.107Z,8.17
2022-12-26T06:57:19.086Z,8.12
2022-12-26T06:59:47.036Z,8.11
2022-12-26T07:02:15.085Z,8.15
2022-12-26T07:05:12.390Z,8.17
2022-12-26T07:07:39.165Z,8.25
2022-12-26T07:10:07.327Z,8.17
2022-12-26T07:15:27.055Z,8.12
2022-12-26T07:17:55.617Z,8.18
2022-12-26T07:20:23.031Z,8.17
2022-12-26T07:22:56.133Z,8.18
2022-12-26T07:25:49.094Z,8.24
2022-12-26T07:28:17.097Z,8.25
2022-12-26T07:30:50.737Z,8.24
2022-12-26T07:33:19.116Z,8.33
2022-12-26T07:35:51.067Z,8.25
2022-12-26T07:38:19.188Z,8.19
2022-12-26T07:40:51.044Z,8.29
2022-12-26T07:43:19.020Z,8.35
2022-12-26T07:45:47.122Z,8.32
2022-12-26T07:48:15.095Z,8.35
2022-12-26T07:50:47.089Z,8.38
2022-12-26T07:56:08.088Z,8.32
2022-12-26T07:58:35.178Z,8.32
2022-12-26T08:01:04.569Z,8.38
2022-12-26T08:03:33.980Z,8.43
2022-12-26T08:06:01.374Z,8.46
2022-12-26T08:08:29.058Z,8.45
2022-12-26T08:11:01.336Z,8.39
2022-12-26T08:13:30.123Z,8.40
2022-12-26T08:15:57.991Z,8.48
2022-12-26T08:18:25.576Z,8.52
2022-12-26T08:20:53.235Z,8.49
2022-12-26T08:23:21.071Z,8.53
2022-12-26T08:25:54.093Z,8.52
2022-12-26T08:28:47.085Z,8.42
2022-12-26T08:31:15.221Z,8.46
2022-12-26T08:34:08.274Z,8.56
2022-12-26T08:36:40.193Z,8.54
2022-12-26T08:39:07.193Z,8.53
2022-12-26T08:41:35.052Z,8.52
2022-12-26T08:44:26.429Z,8.54
2022-12-26T08:52:59.039Z,8.64
2022-12-26T08:55:31.057Z,8.73
2022-12-26T08:57:59.045Z,8.68
2022-12-26T09:00:27.184Z,8.70
2022-12-26T09:03:00.226Z,8.68
2022-12-26T09:05:29.092Z,8.68
2022-12-26T09:08:02.113Z,8.67
2022-12-26T09:10:29.041Z,8.66
2022-12-26T09:12:57.092Z,8.74
2022-12-26T09:15:25.438Z,8.64
2022-12-26T09:17:57.134Z,8.71
2022-12-26T09:20:25.286Z,8.78
2022-12-26T09:22:53.529Z,8.84
2022-12-26T09:25:24.305Z,8.88
2022-12-26T09:30:45.202Z,8.81
2022-12-26T09:33:13.208Z,8.81
2022-12-26T09:35:41.677Z,8.86
2022-12-26T09:38:09.057Z,8.74
2022-12-26T09:41:04.924Z,8.78
2022-12-26T09:43:57.382Z,8.77
2022-12-26T09:46:36.582Z,8.87
2022-12-26T09:49:12.160Z,8.81
2022-12-26T09:52:16.118Z,8.78
2022-12-26T09:57:49.096Z,8.81
2022-12-26T10:00:23.998Z,8.70
2022-12-26T10:02:54.639Z,8.67
2022-12-26T10:05:27.995Z,8.77
2022-12-26T10:08:24.811Z,8.77
2022-12-26T10:11:02.127Z,8.74
2022-12-26T10:13:28.985Z,8.84
2022-12-26T10:16:21.653Z,8.81
2022-12-26T10:19:30.398Z,8.88
2022-12-26T10:21:59.179Z,8.87
2022-12-26T10:24:39.909Z,8.95
2022-12-26T10:27:17.281Z,8.81
2022-12-26T10:30:07.397Z,8.93
2022-12-26T10:32:42.299Z,8.95
2022-12-26T10:35:17.159Z,8.97
2022-12-26T10:37:45.189Z,8.94
2022-12-26T10:40:27.197Z,9.10
2022-12-26T10:46:44.954Z,9.00
2022-12-26T10:49:15.714Z,9.00
2022-12-26T10:51:50.719Z,9.03
2022-12-26T10:54:20.329Z,9.08
2022-12-26T10:56:51.647Z,9.11
2022-12-26T10:59:56.724Z,9.04
2022-12-26T11:02:27.167Z,9.08
2022-12-26T11:11:19.952Z,9.10
2022-12-26T11:13:51.397Z,8.98
2022-12-26T11:16:34.579Z,9.04
2022-12-26T11:19:03.350Z,8.98
2022-12-26T11:21:37.498Z,9.07
2022-12-26T11:24:08.015Z,9.12
2022-12-26T11:26:36.395Z,9.11
2022-12-26T11:29:24.359Z,9.15
2022-12-26T11:32:25.193Z,9.05
2022-12-26T11:34:53.043Z,9.07
2022-12-26T11:37:34.263Z,9.10
2022-12-26T11:40:04.789Z,9.15
2022-12-26T11:42:33.166Z,9.11
2022-12-26T11:45:12.014Z,9.15
2022-12-26T11:47:45.313Z,9.21
2022-12-26T11:50:26.055Z,9.07
2022-12-26T11:52:56.147Z,9.18
2022-12-26T11:55:23.206Z,9.16
2022-12-26T11:58:01.782Z,9.24
2022-12-26T12:00:29.734Z,9.16
2022-12-26T12:03:02.161Z,9.26
2022-12-26T12:05:28.993Z,9.11
2022-12-26T12:08:05.956Z,9.16
2022-12-26T12:10:48.703Z,9.12
2022-12-26T12:13:58.700Z,9.19
2022-12-26T12:16:44.352Z,9.21
2022-12-26T12:19:38.345Z,9.29
2022-12-26T12:25:29.500Z,9.22
2022-12-26T12:27:56.995Z,9.14
2022-12-26T12:30:37.029Z,9.11
2022-12-26T12:33:11.015Z,9.08
2022-12-26T12:36:01.020Z,9.04
2022-12-26T12:38:36.259Z,9.05
2022-12-26T12:41:21.495Z,9.12
2022-12-26T12:44:21.085Z,9.10
2022-12-26T12:47:06.368Z,9.07
2022-12-26T12:49:58.141Z,9.19
2022-12-26T12:53:03.466Z,9.11
2022-12-26T12:55:48.253Z,9.14
2022-12-26T12:58:24.098Z,9.12
2022-12-26T13:00:56.629Z,9.18
2022-12-26T13:03:36.617Z,9.08
2022-12-26T13:06:11.486Z,9.14
2022-12-26T13:09:13.884Z,9.18
2022-12-26T13:11:50.979Z,9.10
2022-12-26T13:14:30.898Z,9.11
2022-12-26T13:17:13.030Z,9.10
2022-12-26T13:19:51.583Z,9.14
2022-12-26T13:22:50.445Z,9.14
2022-12-26T13:25:19.020Z,9.25
2022-12-26T13:27:50.466Z,9.15
2022-12-26T13:33:14.955Z,9.12
2022-12-26T13:39:25.900Z,9.05
2022-12-26T13:42:13.326Z,9.00
2022-12-26T13:45:43.258Z,8.93
2022-12-26T13:48:17.052Z,8.81
2022-12-26T13:51:02.705Z,8.84
2022-12-26T13:53:33.597Z,8.81
2022-12-26T13:56:06.526Z,8.74
2022-12-26T13:58:41.706Z,8.71
2022-12-26T14:01:21.415Z,8.67
2022-12-26T14:03:55.951Z,8.68
2022-12-26T14:06:45.956Z,8.53
2022-12-26T14:09:21.309Z,8.42
2022-12-26T14:12:18.691Z,8.42
2022-12-26T14:15:02.243Z,8.30
2022-12-26T14:17:51.392Z,8.24
2022-12-26T14:20:50.689Z,8.36
2022-12-26T14:24:09.669Z,8.42
2022-12-26T14:26:53.169Z,8.36
2022-12-26T14:29:32.062Z,8.29
2022-12-26T14:32:39.628Z,8.21
2022-12-26T14:42:27.542Z,7.83
2022-12-26T14:44:57.784Z,7.81
2022-12-26T14:50:55.354Z,7.62
2022-12-26T14:53:28.868Z,7.74
2022-12-26T14:56:08.005Z,7.64
2022-12-26T14:58:42.475Z,7.73
2022-12-26T15:01:20.735Z,7.84
2022-12-26T15:03:58.104Z,7.50
2022-12-26T15:06:52.838Z,7.36
2022-12-26T15:09:42.112Z,7.57
2022-12-26T15:12:18.149Z,7.46
2022-12-26T15:15:22.303Z,7.63
2022-12-26T15:18:43.325Z,7.50
2022-12-26T15:21:45.970Z,7.40
2022-12-26T15:25:19.938Z,7.46
2022-12-26T15:28:03.459Z,7.47
2022-12-26T15:30:36.914Z,7.63
2022-12-26T15:33:25.625Z,7.38
2022-12-26T15:36:14.149Z,7.38
2022-12-26T15:39:10.211Z,7.34
2022-12-26T15:42:00.121Z,7.12
2022-12-26T15:44:53.905Z,7.17
2022-12-26T15:47:28.442Z,7.22
2022-12-26T15:50:02.876Z,7.11
2022-12-26T15:52:47.545Z,6.80
2022-12-26T15:58:55.810Z,6.97
2022-12-26T16:01:43.751Z,6.86
2022-12-26T16:07:42.602Z,6.90
2022-12-26T16:10:38.669Z,7.09
2022-12-26T16:13:23.443Z,7.11
2022-12-26T16:15:58.560Z,7.08
2022-12-26T16:18:30.612Z,6.75
2022-12-26T16:21:26.752Z,6.90
2022-12-26T16:23:56.855Z,6.88
2022-12-26T16:26:32.233Z,6.63
2022-12-26T16:29:05.781Z,6.68
2022-12-26T16:31:33.160Z,6.69
2022-12-26T16:34:01.212Z,6.73
2022-12-26T16:36:32.241Z,6.60
2022-12-26T16:39:09.654Z,6.56
2022-12-26T16:42:05.974Z,6.60
2022-12-26T16:44:42.983Z,6.31
2022-12-26T16:47:36.022Z,6.62
2022-12-26T16:50:17.954Z,6.62
2022-12-26T16:52:47.157Z,6.36
2022-12-26T16:55:35.422Z,6.49
2022-12-26T16:58:15.811Z,6.41
2022-12-26T17:00:50.317Z,6.29
2022-12-26T17:03:32.505Z,6.29
2022-12-26T17:06:06.690Z,6.39
2022-12-26T17:08:35.162Z,6.24
2022-12-26T17:11:03.116Z,6.20
2022-12-26T17:13:31.202Z,6.24
2022-12-26T17:16:04.420Z,6.48
2022-12-26T17:19:17.959Z,6.39
2022-12-26T17:22:19.133Z,6.41
2022-12-26T17:24:51.986Z,6.04
2022-12-26T17:27:19.101Z,6.24
2022-12-26T17:29:49.990Z,6.21
2022-12-26T17:32:27.654Z,6.26
2022-12-26T17:34:55.098Z,5.91
2022-12-26T17:37:51.543Z,6.01
2022-12-26T17:40:26.576Z,5.97
2022-12-26T17:43:09.539Z,6.00
2022-12-26T17:45:44.571Z,5.91
2022-12-26T17:48:40.899Z,6.04
2022-12-26T17:51:16.487Z,5.80
2022-12-26T17:53:50.133Z,5.94
2022-12-26T17:59:14.519Z,5.90
2022-12-26T18:01:43.224Z,5.90
2022-12-26T18:04:11.047Z,5.80
2022-12-26T18:06:40.687Z,5.72
2022-12-26T18:09:24.932Z,5.89
2022-12-26T18:11:57.159Z,5.70
2022-12-26T18:17:19.841Z,5.73
2022-12-26T18:20:12.045Z,5.67
2022-12-26T18:22:44.297Z,5.72
2022-12-26T18:25:20.230Z,5.46
2022-12-26T18:28:19.639Z,5.53
2022-12-26T18:30:49.872Z,5.43
2022-12-26T18:33:23.181Z,5.32
2022-12-26T18:35:51.285Z,5.38
2022-12-26T18:38:20.826Z,5.48
2022-12-26T18:40:53.324Z,5.62
2022-12-26T18:43:25.092Z,5.28
2022-12-26T18:45:58.337Z,5.50
2022-12-26T18:48:25.041Z,5.43
2022-12-26T18:50:53.091Z,5.28
2022-12-26T18:53:25.054Z,5.25
2022-12-26T18:55:53.279Z,5.31
2022-12-26T18:58:21.083Z,5.11
2022-12-26T19:00:49.115Z,5.22
2022-12-26T19:03:17.058Z,5.18
2022-12-26T19:05:45.063Z,5.10
2022-12-26T19:08:13.043Z,5.14
2022-12-26T19:10:44.564Z,5.10
2022-12-26T19:13:13.550Z,5.03
2022-12-26T19:15:46.739Z,4.87
2022-12-26T19:18:15.579Z,5.05
2022-12-26T19:24:05.338Z,4.94
2022-12-26T19:26:33.068Z,4.97
2022-12-26T19:29:01.096Z,5.11
2022-12-26T19:31:34.939Z,5.08
2022-12-26T19:34:03.187Z,4.89
2022-12-26T19:36:36.236Z,4.91
2022-12-26T19:39:03.757Z,4.87
2022-12-26T19:41:31.124Z,4.93
2022-12-26T19:44:05.073Z,4.90
2022-12-26T19:46:33.152Z,4.81
2022-12-26T19:49:01.105Z,4.68
2022-12-26T19:51:29.151Z,4.65
2022-12-26T19:53:57.035Z,4.80
2022-12-26T19:56:29.677Z,4.79
2022-12-26T19:59:03.095Z,4.89
2022-12-26T20:01:57.746Z,4.70
2022-12-26T20:04:51.068Z,4.81
2022-12-26T20:07:19.275Z,4.63
2022-12-26T20:09:47.043Z,4.73
2022-12-26T20:12:20.107Z,4.75
2022-12-26T20:14:47.054Z,4.56
2022-12-26T20:17:15.251Z,4.61
2022-12-26T20:22:41.112Z,4.68
2022-12-26T20:25:09.949Z,4.73
2022-12-26T20:27:42.171Z,4.49
2022-12-26T20:30:09.521Z,4.49
2022-12-26T20:32:37.094Z,4.49
2022-12-26T20:35:05.496Z,4.53
2022-12-26T20:37:33.322Z,4.48
2022-12-26T20:43:17.108Z,4.53
2022-12-26T20:45:45.070Z,4.39
2022-12-26T20:48:13.055Z,4.29
2022-12-26T20:50:41.069Z,4.49
2022-12-26T20:53:09.361Z,4.45
2022-12-26T20:55:42.494Z,4.42
2022-12-26T20:58:11.051Z,4.35
2022-12-26T21:00:44.749Z,4.31
2022-12-26T21:03:17.075Z,4.22
2022-12-26T21:05:50.115Z,4.29
2022-12-26T21:08:17.127Z,4.20
2022-12-26T21:10:45.344Z,4.35
2022-12-26T21:13:13.742Z,4.21
2022-12-26T21:15:46.083Z,4.22
2022-12-26T21:18:13.024Z,4.25
2022-12-26T21:20:46.460Z,4.22
2022-12-26T21:23:15.096Z,4.15
2022-12-26T21:25:43.067Z,4.26
2022-12-26T21:28:11.083Z,4.26
2022-12-26T21:30:44.969Z,4.22
2022-12-26T21:33:13.081Z,4.26
2022-12-26T21:36:15.486Z,4.42
2022-12-26T21:38:43.171Z,4.28
2022-12-26T21:41:11.847Z,4.55
2022-12-26T21:43:39.106Z,4.46
2022-12-26T21:46:09.431Z,4.46
2022-12-26T21:48:55.081Z,4.45
2022-12-26T21:51:47.088Z,4.35
2022-12-26T21:54:33.744Z,4.48
2022-12-26T21:57:01.205Z,4.41
2022-12-26T21:59:47.666Z,4.58
2022-12-26T22:02:34.624Z,4.45
2022-12-26T22:05:03.200Z,4.48
2022-12-26T22:07:31.146Z,4.36
2022-12-26T22:09:59.317Z,4.45
2022-12-26T22:12:45.633Z,4.28
2022-12-26T22:15:36.921Z,4.32
2022-12-26T22:18:05.081Z,4.24
2022-12-26T22:20:35.498Z,4.24
2022-12-26T22:23:04.099Z,4.25
2022-12-26T22:25:32.313Z,4.31
2022-12-26T22:28:00.367Z,4.20
2022-12-26T22:30:27.507Z,4.17
2022-12-26T22:32:55.313Z,4.03
2022-12-26T22:35:23.134Z,3.97
2022-12-26T22:37:51.475Z,4.06
2022-12-26T22:40:19.063Z,4.08
2022-12-26T22:42:47.689Z,4.00
2022-12-26T22:45:15.234Z,4.15
2022-12-26T22:47:43.058Z,4.18
2022-12-26T22:50:16.126Z,4.13
2022-12-26T22:52:44.125Z,4.20
2022-12-26T22:55:13.143Z,4.01
2022-12-26T22:57:41.928Z,4.07
2022-12-26T23:00:15.365Z,4.01
2022-12-26T23:02:43.340Z,4.00
2022-12-26T23:05:12.359Z,4.04
2022-12-26T23:07:39.511Z,3.94
2022-12-26T23:10:36.885Z,3.90
2022-12-26T23:13:13.672Z,3.91
2022-12-26T23:16:42.642Z,3.98
2022-12-26T23:19:44.227Z,3.93
2022-12-26T23:22:37.298Z,3.93
2022-12-26T23:25:05.407Z,3.87
2022-12-26T23:27:55.724Z,3.97
2022-12-26T23:30:23.509Z,3.87
2022-12-26T23:32:53.219Z,3.83
2022-12-26T23:35:22.114Z,3.85
2022-12-26T23:37:49.713Z,3.75
2022-12-26T23:40:19.259Z,3.87
2022-12-26T23:42:47.366Z,3.82
2022-12-26T23:45:21.084Z,3.82
2022-12-26T23:47:49.088Z,3.83
2022-12-26T23:53:14.601Z,3.90
2022-12-26T23:55:43.081Z,3.77
2022-12-26T23:58:11.051Z,3.82
